Time;durP1;ratioP1;P1;durP2;ratioP2;P2;SDS_P1;SDS_P2;PMS_P1;PMS_P2;Temp;Humidity;BMP_temperature;BMP_pressure;BME280_temperature;BME280_humidity;BME280_pressure;Samples;Min_cycle;Max_cycle;Signal;HPM_P1;HPM_P2
2023/12/24 00:01:54;;;;;;;;;3.33;3.00;;;;;11.92;68.68;101359.91;5119257;27;45498;-68
2023/12/24 00:04:20;;;;;;;;;2.67;2.67;;;;;11.87;69.15;101333.63;5118395;27;45397;-68
2023/12/24 00:06:45;;;;;;;;;3.00;3.00;;;;;11.56;68.87;101285.28;5118464;27;45328;-67
2023/12/24 00:09:11;;;;;;;;;3.33;3.33;;;;;11.93;68.92;101332.75;5118077;27;46371;-67
2023/12/24 00:11:36;;;;;;;;;2.67;2.67;;;;;11.61;69.28;101281.81;5118423;27;45428;-68
2023/12/24 00:14:03;;;;;;;;;5.33;3.33;;;;;12.19;69.03;101378.44;5118417;27;45444;-66
2023/12/24 00:16:29;;;;;;;;;3.67;3.00;;;;;12.07;68.68;101345.09;5118662;27;45484;-67
2023/12/24 00:18:57;;;;;;;;;3.00;3.00;;;;;11.92;69.05;101331.91;5118101;27;45453;-68
2023/12/24 00:21:24;;;;;;;;;2.67;2.00;;;;;12.24;68.79;101386.31;5106447;27;45818;-69
2023/12/24 00:23:53;;;;;;;;;5.33;3.00;;;;;12.25;68.91;101393.34;5115132;27;45429;-68
2023/12/24 00:26:19;;;;;;;;;3.67;2.67;;;;;12.20;69.00;101382.81;5117729;27;45513;-69
2023/12/24 00:28:50;;;;;;;;;5.33;4.67;;;;;12.25;69.03;101380.22;5116864;27;45963;-68
2023/12/24 00:31:17;;;;;;;;;4.00;4.00;;;;;12.26;68.81;101374.97;5117724;27;45471;-71
2023/12/24 00:33:43;;;;;;;;;4.00;4.00;;;;;12.17;69.10;101372.31;5119570;27;45350;-68
2023/12/24 00:36:09;;;;;;;;;2.00;2.00;;;;;12.20;69.29;101376.69;5118057;27;45586;-70
2023/12/24 00:38:34;;;;;;;;;3.00;3.00;;;;;12.21;68.79;101389.81;5118636;27;45551;-67
2023/12/24 00:41:00;;;;;;;;;4.33;3.00;;;;;12.15;68.79;101381.91;5117628;27;45541;-68
2023/12/24 00:43:26;;;;;;;;;5.33;3.00;;;;;12.06;68.94;101360.84;5116918;27;45768;-68
2023/12/24 00:45:51;;;;;;;;;3.33;2.67;;;;;12.12;68.44;101368.75;5119124;27;46109;-69
2023/12/24 00:48:17;;;;;;;;;1.00;1.00;;;;;12.13;69.11;101378.41;5117536;27;46116;-69
2023/12/24 00:50:46;;;;;;;;;3.67;2.33;;;;;12.02;68.35;101344.19;5119404;27;45410;-69
2023/12/24 00:53:12;;;;;;;;;2.67;2.00;;;;;12.14;68.34;101361.75;5118341;27;45358;-67
2023/12/24 00:55:43;;;;;;;;;3.33;3.00;;;;;11.90;68.49;101317.88;5118439;27;45394;-69
2023/12/24 00:58:09;;;;;;;;;3.00;3.00;;;;;12.18;68.67;101344.28;5118345;27;45611;-68
2023/12/24 01:00:38;;;;;;;;;5.33;4.00;;;;;11.84;68.70;101286.31;5118496;27;45353;-70
2023/12/24 01:03:04;;;;;;;;;3.33;3.00;;;;;11.54;68.19;101251.16;5117560;27;45430;-69
2023/12/24 01:05:30;;;;;;;;;4.00;2.00;;;;;11.96;68.53;101317.03;5118637;27;45408;-67
2023/12/24 01:07:55;;;;;;;;;3.33;2.00;;;;;12.12;68.38;101337.25;5118746;27;45506;-69
2023/12/24 01:10:21;;;;;;;;;3.00;2.33;;;;;12.00;68.45;101316.19;5119948;27;45418;-68
2023/12/24 01:12:48;;;;;;;;;5.00;2.33;;;;;12.02;68.51;101332.81;5118952;27;45432;-69
2023/12/24 01:15:13;;;;;;;;;5.00;2.00;;;;;12.03;68.76;101321.44;5116846;27;45550;-67
2023/12/24 01:17:39;;;;;;;;;4.67;3.33;;;;;12.06;68.66;101335.47;5117954;27;45316;-68
2023/12/24 01:20:15;;;;;;;;;4.33;3.00;;;;;12.13;68.61;101346.91;5117782;27;45433;-69
2023/12/24 01:22:40;;;;;;;;;3.00;2.00;;;;;12.12;68.79;101339.88;5119070;27;45722;-67
2023/12/24 01:25:07;;;;;;;;;3.00;3.00;;;;;11.97;68.95;101329.31;5119847;27;45455;-70
2023/12/24 01:27:33;;;;;;;;;4.33;3.00;;;;;11.94;68.72;101319.66;5118342;27;46417;-67
2023/12/24 01:29:58;;;;;;;;;3.33;3.33;;;;;12.05;68.42;101336.34;5118123;27;45344;-69
2023/12/24 01:32:24;;;;;;;;;1.00;1.00;;;;;12.13;68.79;101346.91;5117424;27;45478;-68
2023/12/24 01:34:49;;;;;;;;;3.67;3.00;;;;;11.97;68.69;101324.03;5117942;27;45242;-67
2023/12/24 01:37:18;;;;;;;;;2.00;2.00;;;;;11.94;68.43;101318.78;5118386;27;46365;-67
2023/12/24 01:39:44;;;;;;;;;2.00;2.00;;;;;12.14;68.39;101350.41;5118111;27;45427;-68
2023/12/24 01:42:09;;;;;;;;;3.00;1.33;;;;;12.12;68.08;101339.00;5117659;27;45806;-68
2023/12/24 01:44:35;;;;;;;;;3.00;3.00;;;;;12.02;68.36;101327.56;5119761;27;45291;-67
2023/12/24 01:47:01;;;;;;;;;3.00;3.00;;;;;12.09;68.71;101329.34;5117745;27;46519;-67
2023/12/24 01:49:27;;;;;;;;;2.00;1.67;;;;;12.10;68.24;101336.34;5117540;27;45481;-68
2023/12/24 01:51:54;;;;;;;;;4.00;2.00;;;;;12.15;67.99;101355.66;5117504;27;45402;-68
2023/12/24 01:54:21;;;;;;;;;2.33;2.00;;;;;12.12;67.59;101349.50;5116113;27;45523;-67
2023/12/24 01:56:48;;;;;;;;;3.67;2.00;;;;;12.06;67.50;101350.34;5115620;27;46952;-69
2023/12/24 01:59:15;;;;;;;;;2.67;2.00;;;;;12.07;67.38;101352.97;5117203;27;45342;-69
2023/12/24 02:01:47;;;;;;;;;1.33;1.00;;;;;12.07;67.27;101355.59;5117688;27;45493;-67
2023/12/24 02:04:14;;;;;;;;;3.00;1.00;;;;;12.02;67.26;101344.19;5116080;27;45489;-67
2023/12/24 02:06:43;;;;;;;;;1.00;1.00;;;;;12.01;67.01;101342.47;5117320;27;46351;-67
2023/12/24 02:09:11;;;;;;;;;3.00;1.67;;;;;12.03;67.24;101324.97;5117196;27;45508;-66
2023/12/24 02:11:37;;;;;;;;;2.00;1.00;;;;;12.02;66.96;101332.81;5117845;27;45459;-67
2023/12/24 02:14:09;;;;;;;;;2.00;2.00;;;;;11.75;66.78;101287.16;5118066;27;45456;-67
2023/12/24 02:16:41;;;;;;;;;1.67;1.33;;;;;11.88;66.86;101303.88;5117143;27;46223;-67
2023/12/24 02:19:14;;;;;;;;;1.00;1.00;;;;;11.91;66.65;101310.88;5117213;27;45401;-67
2023/12/24 02:21:39;;;;;;;;;1.00;1.00;;;;;12.01;66.95;101325.81;5116863;27;45514;-69
2023/12/24 02:24:05;;;;;;;;;1.67;1.67;;;;;11.97;66.54;101300.41;5117926;27;45282;-67
2023/12/24 02:26:38;;;;;;;;;1.33;1.00;;;;;12.00;66.90;101298.66;5116858;27;45368;-67
2023/12/24 02:29:16;;;;;;;;;1.00;1.00;;;;;11.95;67.33;101289.91;5117703;27;45510;-67
2023/12/24 02:31:45;;;;;;;;;1.00;1.00;;;;;11.99;66.83;101288.19;5116899;27;45456;-66
2023/12/24 02:34:16;;;;;;;;;2.67;2.00;;;;;11.99;67.17;101296.06;5117817;27;45476;-68
2023/12/24 02:36:48;;;;;;;;;2.33;2.00;;;;;11.83;67.19;101266.19;5108546;27;46437;-67
2023/12/24 02:39:14;;;;;;;;;3.33;2.00;;;;;11.94;67.58;101311.78;5105400;27;45903;-68
2023/12/24 02:41:40;;;;;;;;;3.00;3.00;;;;;11.73;67.68;101294.13;5100887;27;45550;-67
2023/12/24 02:44:07;;;;;;;;;4.00;2.33;;;;;11.54;68.05;101263.41;5107805;27;45405;-67
2023/12/24 02:46:32;;;;;;;;;3.00;2.00;;;;;11.78;67.81;101320.41;5097550;27;45479;-68
2023/12/24 02:48:58;;;;;;;;;2.00;1.33;;;;;11.90;67.53;101328.38;5115788;27;45673;-68
2023/12/24 02:51:23;;;;;;;;;3.67;2.00;;;;;11.83;67.63;101322.16;5120324;27;45540;-69
2023/12/24 02:54:21;;;;;;;;;1.00;1.00;;;;;11.87;68.21;101326.63;5106553;27;45569;-66
2023/12/24 02:56:47;;;;;;;;;1.00;1.00;;;;;11.87;67.68;101331.88;5117515;27;45471;-67
2023/12/24 02:59:12;;;;;;;;;3.00;2.00;;;;;11.85;67.94;101317.81;5117461;27;46011;-66
2023/12/24 03:01:39;;;;;;;;;1.00;1.00;;;;;11.75;67.79;101278.41;5119847;27;45502;-70
2023/12/24 03:04:04;;;;;;;;;3.00;1.33;;;;;11.92;67.88;101299.53;5121522;27;45443;-67
2023/12/24 03:06:33;;;;;;;;;2.00;2.00;;;;;11.92;67.92;101296.91;5119599;27;45459;-66
2023/12/24 03:08:59;;;;;;;;;2.00;2.00;;;;;11.80;67.99;101284.56;5121140;27;45458;-69
2023/12/24 03:11:26;;;;;;;;;2.00;2.00;;;;;11.87;68.66;101297.75;5121199;27;45472;-68
2023/12/24 03:13:51;;;;;;;;;1.33;1.00;;;;;11.75;68.45;101266.16;5121491;27;45438;-67
2023/12/24 03:16:17;;;;;;;;;2.33;2.00;;;;;11.85;68.28;101281.06;5120385;27;45434;-66
2023/12/24 03:18:42;;;;;;;;;1.00;1.00;;;;;11.90;68.00;101289.00;5119787;27;45498;-67
2023/12/24 03:21:08;;;;;;;;;2.00;2.00;;;;;11.91;68.33;101296.00;5120115;27;45471;-67
2023/12/24 03:23:35;;;;;;;;;3.33;2.00;;;;;11.86;68.01;101290.72;5120643;27;45286;-67
2023/12/24 03:26:00;;;;;;;;;1.00;1.00;;;;;11.85;68.22;101295.94;5121010;27;46186;-68
2023/12/24 03:28:26;;;;;;;;;1.33;1.33;;;;;11.82;67.80;101290.69;5118531;27;45188;-66
2023/12/24 03:30:51;;;;;;;;;1.67;1.00;;;;;11.90;68.19;101296.00;5119664;27;45246;-66
2023/12/24 03:33:17;;;;;;;;;1.33;1.00;;;;;11.66;68.39;101242.47;5119686;27;45509;-67
2023/12/24 03:35:43;;;;;;;;;1.33;1.33;;;;;11.87;68.58;101268.88;5119642;27;46163;-68
2023/12/24 03:38:09;;;;;;;;;0.33;0.33;;;;;11.86;68.49;101253.06;5118392;27;45394;-66
2023/12/24 03:40:40;;;;;;;;;1.00;1.00;;;;;11.79;68.15;101240.78;5118152;27;45632;-67
2023/12/24 03:43:09;;;;;;;;;2.33;1.67;;;;;11.79;68.11;101244.31;5119694;27;45310;-68
2023/12/24 03:45:35;;;;;;;;;1.33;1.00;;;;;11.87;68.67;101254.88;5119304;27;46562;-67
2023/12/24 03:48:04;;;;;;;;;1.00;1.00;;;;;11.87;68.39;101250.50;5119293;27;45352;-66
2023/12/24 03:50:29;;;;;;;;;1.00;1.00;;;;;11.68;68.37;101207.50;5120162;27;45481;-67
2023/12/24 03:52:55;;;;;;;;;3.00;1.00;;;;;11.87;68.58;101241.75;5119268;27;45385;-65
2023/12/24 03:55:22;;;;;;;;;2.00;1.33;;;;;11.82;68.22;101246.06;5118787;27;45447;-67
2023/12/24 03:57:48;;;;;;;;;1.00;1.00;;;;;11.85;68.18;101265.31;5120725;27;45810;-67
2023/12/24 04:00:14;;;;;;;;;1.00;1.00;;;;;11.78;68.73;101266.16;5119278;27;45458;-67
2023/12/24 04:02:43;;;;;;;;;1.00;1.00;;;;;11.55;68.81;101229.28;5119573;27;45501;-66
2023/12/24 04:05:09;;;;;;;;;0.00;0.00;;;;;11.81;68.73;101263.53;5119611;27;46259;-65
2023/12/24 04:07:39;;;;;;;;;1.00;1.00;;;;;11.66;68.77;101240.72;5118048;27;45389;-67
2023/12/24 04:10:05;;;;;;;;;1.00;1.00;;;;;11.75;68.26;101252.16;5119036;27;45429;-66
2023/12/24 04:12:31;;;;;;;;;1.00;0.33;;;;;11.84;68.25;101271.47;5117400;27;45577;-68
2023/12/24 04:14:56;;;;;;;;;1.00;1.00;;;;;11.77;68.35;101258.25;5118751;27;46215;-65
2023/12/24 04:17:23;;;;;;;;;1.00;1.00;;;;;11.64;68.74;101245.09;5119053;27;45491;-66
2023/12/24 04:19:49;;;;;;;;;1.00;1.00;;;;;11.77;68.84;101261.78;5118874;27;45482;-67
2023/12/24 04:22:15;;;;;;;;;1.33;1.00;;;;;11.76;68.89;101259.16;5118900;27;45460;-66
2023/12/24 04:24:42;;;;;;;;;1.67;1.67;;;;;11.75;68.72;101233.78;5117401;27;45610;-66
2023/12/24 04:27:08;;;;;;;;;3.67;1.67;;;;;11.32;67.87;101160.97;5118497;27;45454;-67
2023/12/24 04:29:33;;;;;;;;;1.00;1.00;;;;;11.10;68.48;101120.63;5118949;27;45290;-67
2023/12/24 04:31:59;;;;;;;;;3.00;2.00;;;;;11.72;68.56;101224.16;5118667;27;45493;-67
2023/12/24 04:34:24;;;;;;;;;1.33;1.00;;;;;11.38;68.67;101168.00;5118775;27;45448;-66
2023/12/24 04:36:51;;;;;;;;;1.67;1.00;;;;;11.31;68.17;101147.84;5118485;27;45422;-67
2023/12/24 04:39:17;;;;;;;;;3.00;1.00;;;;;11.66;68.50;101203.13;5118559;27;45493;-67
2023/12/24 04:41:43;;;;;;;;;2.00;2.00;;;;;11.51;68.72;101166.28;5117501;27;45275;-66
2023/12/24 04:44:09;;;;;;;;;2.33;1.00;;;;;11.39;68.45;101149.66;5118211;27;45502;-66
2023/12/24 04:46:42;;;;;;;;;1.00;1.00;;;;;11.44;68.56;101152.31;5116925;27;45512;-67
2023/12/24 04:49:08;;;;;;;;;2.00;2.00;;;;;11.57;68.96;101182.09;5118052;27;45537;-66
2023/12/24 04:51:37;;;;;;;;;1.00;1.00;;;;;11.12;69.04;101131.13;5118399;27;45473;-66
2023/12/24 04:54:04;;;;;;;;;3.67;2.00;;;;;11.54;69.31;101189.94;5118135;27;46353;-66
2023/12/24 04:56:31;;;;;;;;;3.33;1.33;;;;;11.51;68.83;101187.28;5118229;27;45713;-67
2023/12/24 04:58:57;;;;;;;;;3.00;1.33;;;;;11.36;69.41;101177.59;5118367;27;45411;-67
2023/12/24 05:01:22;;;;;;;;;1.00;1.00;;;;;11.44;69.13;101189.88;5118777;27;45341;-67
2023/12/24 05:03:48;;;;;;;;;2.00;1.00;;;;;11.30;69.65;101160.09;5118520;27;45669;-67
2023/12/24 05:06:14;;;;;;;;;1.00;1.00;;;;;11.43;69.63;101195.97;5119302;27;45486;-66
2023/12/24 05:08:40;;;;;;;;;2.00;2.00;;;;;11.43;69.85;101198.59;5117814;27;45344;-67
2023/12/24 05:11:07;;;;;;;;;2.00;2.00;;;;;11.43;69.76;101195.97;5118202;27;45395;-67
2023/12/24 05:13:34;;;;;;;;;3.00;2.33;;;;;11.34;69.45;101187.19;5117827;27;45685;-66
2023/12/24 05:16:03;;;;;;;;;1.00;1.00;;;;;11.27;69.60;101188.91;5116463;27;45559;-66
2023/12/24 05:18:30;;;;;;;;;1.67;1.00;;;;;11.33;69.59;101188.94;5116606;27;45257;-66
2023/12/24 05:20:56;;;;;;;;;2.00;1.67;;;;;11.41;69.02;101218.72;5118383;27;45254;-66
2023/12/24 05:23:22;;;;;;;;;3.00;1.33;;;;;11.39;69.52;101230.97;5117585;27;46192;-66
2023/12/24 05:25:48;;;;;;;;;4.33;2.00;;;;;11.31;68.95;101209.03;5117982;27;45410;-66
2023/12/24 05:28:16;;;;;;;;;4.00;2.33;;;;;11.36;69.22;101209.94;5118194;27;45488;-67
2023/12/24 05:30:42;;;;;;;;;3.00;2.00;;;;;11.34;69.53;101219.56;5117939;27;45450;-67
2023/12/24 05:33:08;;;;;;;;;1.67;1.33;;;;;11.18;69.01;101173.13;5106617;27;47120;-68
2023/12/24 05:35:34;;;;;;;;;2.00;1.33;;;;;11.39;69.23;101214.31;5119390;27;45652;-69
2023/12/24 05:37:59;;;;;;;;;2.00;2.00;;;;;11.32;69.15;101192.44;5117854;27;45624;-69
2023/12/24 05:40:25;;;;;;;;;1.33;1.33;;;;;11.40;69.40;101205.59;5118021;27;45405;-69
2023/12/24 05:42:51;;;;;;;;;4.33;2.00;;;;;11.37;68.94;101182.00;5117438;27;45960;-68
2023/12/24 05:45:16;;;;;;;;;4.00;2.00;;;;;11.45;68.80;101181.13;5118362;27;45179;-67
2023/12/24 05:47:42;;;;;;;;;3.50;2.00;;;;;11.35;68.82;101157.50;5116149;27;45345;-67
2023/12/24 05:50:12;;;;;;;;;2.00;2.00;;;;;11.33;69.31;101146.13;5119457;27;45229;-67
2023/12/24 05:52:39;;;;;;;;;2.67;2.00;;;;;11.32;68.87;101146.97;5117717;27;45639;-66
2023/12/24 05:55:07;;;;;;;;;4.00;2.00;;;;;11.38;69.54;101158.38;5117507;27;45237;-67
2023/12/24 05:57:33;;;;;;;;;2.75;2.00;;;;;11.40;69.11;101137.41;5117776;27;45929;-69
2023/12/24 05:59:58;;;;;;;;;2.33;2.00;;;;;11.43;69.60;101167.13;5117686;27;45400;-68
2023/12/24 06:02:24;;;;;;;;;3.00;2.67;;;;;11.41;69.00;101147.91;5118549;27;45585;-68
2023/12/24 06:04:50;;;;;;;;;2.00;2.00;;;;;10.91;69.51;101066.34;5117135;27;45526;-68
2023/12/24 06:07:16;;;;;;;;;5.00;2.00;;;;;11.14;69.58;101103.19;5118873;27;45483;-67
2023/12/24 06:09:41;;;;;;;;;3.00;2.00;;;;;11.46;70.24;101159.31;5116176;27;45497;-67
2023/12/24 06:12:07;;;;;;;;;4.67;2.33;;;;;11.34;69.55;101133.03;5117352;27;46325;-68
2023/12/24 06:14:36;;;;;;;;;2.33;2.33;;;;;11.16;69.69;101098.84;5118496;27;45528;-67
2023/12/24 06:17:05;;;;;;;;;3.00;3.00;;;;;11.40;69.56;101129.53;5118866;27;45525;-66
2023/12/24 06:19:31;;;;;;;;;5.67;2.67;;;;;11.45;70.22;101147.03;5118899;27;45552;-67
2023/12/24 06:21:59;;;;;;;;;4.67;3.00;;;;;11.46;69.75;101138.31;5120917;27;46092;-67
2023/12/24 06:24:25;;;;;;;;;5.00;4.00;;;;;11.46;69.45;101150.56;5121881;27;45290;-66
2023/12/24 06:26:53;;;;;;;;;4.00;3.67;;;;;11.43;70.16;101133.03;5121197;27;45522;-68
2023/12/24 06:29:19;;;;;;;;;2.00;2.00;;;;;11.41;69.96;101129.56;5111357;27;45472;-67
2023/12/24 06:31:45;;;;;;;;;1.67;1.67;;;;;11.46;70.06;101146.19;5116942;27;46103;-67
2023/12/24 06:34:11;;;;;;;;;4.00;3.00;;;;;11.34;69.74;101130.41;5120672;27;45855;-67
2023/12/24 06:36:37;;;;;;;;;3.33;3.00;;;;;11.39;69.86;101131.28;5121024;27;45343;-67
2023/12/24 06:39:12;;;;;;;;;2.33;2.00;;;;;11.35;69.65;101139.13;5121543;27;45416;-67
2023/12/24 06:41:38;;;;;;;;;6.33;1.33;;;;;11.11;69.65;101088.31;5118531;27;46927;-67
2023/12/24 06:44:03;;;;;;;;;5.00;2.00;;;;;11.45;70.17;101144.41;5120273;27;45505;-67
2023/12/24 06:46:29;;;;;;;;;2.67;1.33;;;;;11.45;69.91;101141.78;5122222;27;45498;-66
2023/12/24 06:48:55;;;;;;;;;5.00;2.33;;;;;11.47;69.98;101147.06;5122174;27;45449;-67
2023/12/24 06:51:22;;;;;;;;;4.67;2.00;;;;;11.46;70.16;101135.69;5121813;27;46237;-67
2023/12/24 06:53:48;;;;;;;;;3.00;2.67;;;;;11.00;69.95;101048.94;5120383;27;45557;-67
2023/12/24 06:56:17;;;;;;;;;8.33;3.00;;;;;11.21;69.95;101087.47;5121250;27;45466;-67
2023/12/24 06:58:42;;;;;;;;;6.00;3.00;;;;;11.52;70.24;101133.97;5121942;27;45585;-66
2023/12/24 07:01:09;;;;;;;;;2.00;0.00;;;;;11.45;69.90;101149.66;5120875;27;46147;-67
2023/12/24 07:03:34;;;;;;;;;3.67;2.33;;;;;11.34;69.86;101116.38;5120782;27;45377;-66
2023/12/24 07:06:00;;;;;;;;;3.75;3.00;;;;;11.13;70.05;101076.09;5121460;27;45282;-68
2023/12/24 07:08:26;;;;;;;;;5.33;2.00;;;;;11.17;70.36;101096.19;5120587;27;45455;-67
2023/12/24 07:10:51;;;;;;;;;3.67;1.00;;;;;11.48;70.02;101147.94;5121011;27;45431;-66
2023/12/24 07:13:17;;;;;;;;;2.00;2.00;;;;;11.42;70.59;101139.16;5120634;27;45288;-66
2023/12/24 07:15:43;;;;;;;;;5.67;3.33;;;;;11.46;70.40;101134.81;5120042;27;45464;-67
2023/12/24 07:18:09;;;;;;;;;6.00;2.33;;;;;11.54;70.21;101151.47;5118603;27;45451;-66
2023/12/24 07:20:35;;;;;;;;;5.00;3.00;;;;;10.98;70.64;101071.63;5120933;27;45684;-67
2023/12/24 07:23:00;;;;;;;;;6.00;3.00;;;;;11.48;69.96;101140.06;5119326;27;46281;-66
2023/12/24 07:25:26;;;;;;;;;3.33;1.33;;;;;11.30;70.52;101112.88;5120015;27;45250;-67
2023/12/24 07:27:52;;;;;;;;;2.33;2.00;;;;;11.26;70.91;101108.47;5119126;27;46138;-67
2023/12/24 07:30:18;;;;;;;;;7.00;3.00;;;;;11.41;70.61;101129.56;5119231;27;46043;-67
2023/12/24 07:32:44;;;;;;;;;4.00;3.00;;;;;11.28;70.69;101112.00;5119302;27;45857;-68
2023/12/24 07:35:13;;;;;;;;;3.33;3.33;;;;;11.54;70.63;101153.22;5120709;27;45696;-66
2023/12/24 07:37:40;;;;;;;;;3.00;3.00;;;;;10.66;70.73;100995.47;5120060;27;45464;-67
2023/12/24 07:40:09;;;;;;;;;3.67;2.00;;;;;11.40;71.07;101121.66;5118025;27;46825;-67
2023/12/24 07:42:35;;;;;;;;;4.33;2.00;;;;;11.34;71.00;101096.31;5119349;27;45565;-66
2023/12/24 07:45:03;;;;;;;;;3.67;2.00;;;;;11.37;71.50;101125.16;5119094;27;45393;-66
2023/12/24 07:47:32;;;;;;;;;2.33;2.00;;;;;11.45;72.00;101149.66;5119554;27;45431;-66
2023/12/24 07:49:58;;;;;;;;;3.00;3.00;;;;;10.96;71.69;101057.66;5119071;27;45535;-66
2023/12/24 07:52:24;;;;;;;;;1.00;1.00;;;;;11.31;72.40;101111.13;5119365;27;45521;-67
2023/12/24 07:54:54;;;;;;;;;2.00;1.67;;;;;11.41;72.47;101140.06;5119532;27;45397;-66
2023/12/24 07:57:19;;;;;;;;;2.33;2.33;;;;;11.44;72.45;101136.56;5119544;27;45427;-66
2023/12/24 07:59:48;;;;;;;;;4.00;2.67;;;;;11.42;73.04;101149.66;5119026;27;46173;-67
2023/12/24 08:02:14;;;;;;;;;5.00;3.00;;;;;11.40;73.09;101134.78;5117865;27;45451;-67
2023/12/24 08:04:41;;;;;;;;;4.00;2.67;;;;;11.14;73.41;101106.69;5119262;27;45510;-66
2023/12/24 08:07:06;;;;;;;;;5.00;2.00;;;;;11.21;73.07;101105.84;5120636;27;45471;-69
2023/12/24 08:09:32;;;;;;;;;5.00;3.33;;;;;11.12;72.95;101090.06;5120679;27;45257;-67
2023/12/24 08:11:58;;;;;;;;;2.33;1.67;;;;;11.25;73.38;101097.13;5120815;27;45376;-67
2023/12/24 08:14:37;;;;;;;;;6.67;4.00;;;;;11.36;73.08;101135.63;5119545;27;45547;-70
2023/12/24 08:17:03;;;;;;;;;2.00;1.67;;;;;11.37;73.10;101126.91;5110734;27;46183;-67
2023/12/24 08:19:33;;;;;;;;;2.00;2.00;;;;;11.53;73.71;101149.72;5105744;27;45493;-67
2023/12/24 08:21:58;;;;;;;;;2.33;2.00;;;;;11.56;72.50;101144.47;5101777;27;45475;-67
2023/12/24 08:24:24;;;;;;;;;6.00;3.00;;;;;11.55;72.50;101136.59;5099867;27;45352;-67
2023/12/24 08:26:51;;;;;;;;;3.00;2.00;;;;;11.49;72.17;101132.22;5109394;27;45551;-66
2023/12/24 08:29:20;;;;;;;;;3.67;2.00;;;;;11.55;72.13;101136.59;5109863;27;46252;-66
2023/12/24 08:31:47;;;;;;;;;1.00;1.00;;;;;11.58;72.29;101147.09;5119609;27;45338;-66
2023/12/24 08:34:12;;;;;;;;;2.00;2.00;;;;;11.61;72.81;101181.22;5119318;27;45455;-68
2023/12/24 08:36:39;;;;;;;;;5.33;2.33;;;;;11.34;71.81;101124.25;5118359;27;45589;-68
2023/12/24 08:39:09;;;;;;;;;2.67;2.00;;;;;11.65;71.98;101178.63;5118634;27;45781;-67
2023/12/24 08:41:34;;;;;;;;;5.00;2.67;;;;;11.44;71.46;101124.31;5117937;27;45484;-67
2023/12/24 08:44:00;;;;;;;;;3.33;2.00;;;;;11.49;71.77;101142.69;5117233;27;45533;-67
2023/12/24 08:46:25;;;;;;;;;6.33;2.00;;;;;11.62;71.15;101151.50;5119168;27;45470;-67
2023/12/24 08:48:51;;;;;;;;;3.67;2.00;;;;;11.34;71.19;101117.28;5118198;27;46353;-67
2023/12/24 08:51:17;;;;;;;;;6.00;1.33;;;;;11.67;71.11;101163.78;5119232;27;45376;-66
2023/12/24 08:53:43;;;;;;;;;6.00;2.00;;;;;11.68;71.10;101157.66;5116954;27;45490;-66
2023/12/24 08:56:09;;;;;;;;;4.00;2.00;;;;;11.78;70.50;101183.94;5118146;27;45522;-66
2023/12/24 08:58:35;;;;;;;;;3.00;2.00;;;;;11.81;70.73;101192.69;5119150;27;46460;-68
2023/12/24 09:01:00;;;;;;;;;4.00;3.00;;;;;11.81;71.23;101171.69;5113394;27;45450;-65
2023/12/24 09:03:26;;;;;;;;;2.00;2.00;;;;;11.78;72.86;101181.31;5119150;27;45461;-67
2023/12/24 09:05:52;;;;;;;;;3.00;2.00;;;;;11.83;70.40;101187.44;5119919;27;45545;-66
2023/12/24 09:08:18;;;;;;;;;5.00;3.00;;;;;11.81;70.61;101174.31;5118774;27;46173;-68
2023/12/24 09:10:46;;;;;;;;;2.00;2.00;;;;;11.81;70.56;101171.69;5114969;27;45555;-68
2023/12/24 09:13:12;;;;;;;;;2.67;1.67;;;;;11.60;70.16;101119.13;5117668;27;45454;-68
2023/12/24 09:15:38;;;;;;;;;4.00;2.67;;;;;11.82;70.37;101157.72;5119084;27;45366;-67
2023/12/24 09:18:20;;;;;;;;;3.00;1.00;;;;;11.97;69.98;101171.78;5118062;27;46389;-66
2023/12/24 09:20:46;;;;;;;;;3.67;2.00;;;;;11.95;70.41;101184.03;5111286;27;45591;-66
2023/12/24 09:23:12;;;;;;;;;3.67;3.00;;;;;11.99;69.96;101198.94;5113588;27;45477;-66
2023/12/24 09:25:37;;;;;;;;;6.00;3.00;;;;;12.01;69.97;101187.56;5113047;27;45503;-68
2023/12/24 09:28:03;;;;;;;;;4.00;2.00;;;;;12.06;69.47;101193.69;5108972;27;46208;-68
2023/12/24 09:30:28;;;;;;;;;2.00;2.00;;;;;12.12;69.56;101171.81;5108016;27;45596;-67
2023/12/24 09:33:00;;;;;;;;;1.33;1.33;;;;;12.01;69.65;101153.44;5119403;27;45402;-67
2023/12/24 09:35:27;;;;;;;;;5.33;2.00;;;;;12.07;69.25;101168.31;5114189;27;45596;-66
2023/12/24 09:37:53;;;;;;;;;5.00;4.00;;;;;12.04;69.14;101150.81;5118148;27;45372;-67
2023/12/24 09:40:38;;;;;;;;;7.00;2.67;;;;;11.92;69.04;101131.53;5115151;27;45406;-66
2023/12/24 09:43:05;;;;;;;;;5.00;3.00;;;;;12.01;68.78;101150.81;5110825;27;45593;-67
2023/12/24 09:45:37;;;;;;;;;2.67;2.67;;;;;12.19;68.93;101180.59;5115101;27;45675;-69
2023/12/24 09:48:03;;;;;;;;;3.33;3.00;;;;;12.03;69.50;101145.53;5111243;27;46570;-66
2023/12/24 09:50:55;;;;;;;;;5.67;3.00;;;;;12.21;69.12;101174.47;5111169;27;45331;-68
2023/12/24 09:53:21;;;;;;;;;2.67;2.33;;;;;12.19;69.13;101168.34;5108448;27;45331;-67
2023/12/24 09:56:11;;;;;;;;;3.33;2.00;;;;;12.10;69.08;101165.69;5110385;27;45372;-67
2023/12/24 09:58:37;;;;;;;;;6.67;2.00;;;;;12.03;68.79;101137.66;5121775;27;46032;-66
2023/12/24 10:01:03;;;;;;;;;4.67;3.00;;;;;12.23;68.97;101159.59;5121382;27;45574;-69
2023/12/24 10:03:28;;;;;;;;;0.67;0.00;;;;;12.24;68.75;101165.72;5117776;27;45549;-69
2023/12/24 10:06:15;;;;;;;;;4.67;1.33;;;;;12.12;68.97;101139.44;5117847;27;45532;-71
2023/12/24 10:08:41;;;;;;;;;2.33;2.33;;;;;12.02;69.10;101125.41;5116880;27;46070;-68
2023/12/24 10:11:20;;;;;;;;;3.33;3.00;;;;;12.27;68.83;101164.00;5120967;27;45554;-68
2023/12/24 10:13:47;;;;;;;;;4.00;3.00;;;;;12.19;69.47;101156.97;5119961;27;45407;-67
2023/12/24 10:16:16;;;;;;;;;5.67;2.67;;;;;12.24;69.80;101165.72;5120668;27;45742;-68
2023/12/24 10:18:49;;;;;;;;;5.00;2.00;;;;;12.18;69.97;101163.09;5119005;27;45312;-69
2023/12/24 10:21:16;;;;;;;;;7.33;4.00;;;;;12.40;69.65;101174.50;5119778;27;45320;-67
2023/12/24 10:23:47;;;;;;;;;5.00;3.67;;;;;11.96;68.81;101105.28;5113025;27;45325;-67
2023/12/24 10:26:13;;;;;;;;;4.00;4.00;;;;;12.43;68.64;101175.41;5113076;27;45528;-66
2023/12/24 10:29:00;;;;;;;;;7.33;3.00;;;;;12.13;68.02;101115.81;5120547;27;45482;-66
2023/12/24 10:31:25;;;;;;;;;5.00;1.67;;;;;12.29;68.61;101114.97;5117561;27;45486;-68
2023/12/24 10:33:59;;;;;;;;;2.67;2.67;;;;;12.61;68.50;101156.13;5109305;27;45597;-69
2023/12/24 10:36:25;;;;;;;;;6.00;5.00;;;;;12.67;67.77;101160.50;5116681;27;45507;-67
2023/12/24 10:38:51;;;;;;;;;6.00;4.00;;;;;12.59;67.77;101136.00;5119837;27;45475;-65
2023/12/24 10:41:17;;;;;;;;;6.67;4.00;;;;;12.63;68.00;101146.50;5120071;27;45507;-66
2023/12/24 10:43:42;;;;;;;;;3.67;2.00;;;;;12.49;68.35;101119.34;5119706;27;45349;-68
2023/12/24 10:46:08;;;;;;;;;4.00;2.00;;;;;12.69;68.13;101151.78;5120470;27;45525;-71
2023/12/24 10:48:33;;;;;;;;;6.33;3.00;;;;;12.51;67.62;101096.59;5121210;27;45448;-71
2023/12/24 10:51:02;;;;;;;;;3.00;2.00;;;;;12.89;67.45;101132.47;5117345;27;45825;-67
2023/12/24 10:53:28;;;;;;;;;4.33;3.00;;;;;13.04;67.08;101135.06;5118327;27;46218;-68
2023/12/24 10:56:06;;;;;;;;;3.67;2.00;;;;;13.29;66.85;101146.47;5119215;27;45430;-71
2023/12/24 10:58:51;;;;;;;;;4.00;3.67;;;;;13.33;66.37;101142.91;5120629;27;46236;-74
2023/12/24 11:01:17;;;;;;;;;5.00;2.67;;;;;12.80;66.40;101064.16;5115314;27;45306;-70
2023/12/24 11:03:44;;;;;;;;;6.00;3.33;;;;;13.31;66.39;101147.34;5119999;27;45493;-71
2023/12/24 11:06:11;;;;;;;;;2.00;2.00;;;;;12.37;66.08;100994.13;5120543;27;45311;-72
2023/12/24 11:08:36;;;;;;;;;2.00;2.00;;;;;13.00;66.68;101096.50;5120920;27;46449;-71
2023/12/24 11:11:10;;;;;;;;;3.00;2.00;;;;;12.98;66.64;101085.16;5112501;27;45525;-68
2023/12/24 11:13:45;;;;;;;;;4.33;3.33;;;;;13.21;66.79;101129.78;5108434;27;45480;-72
2023/12/24 11:16:25;;;;;;;;;2.67;2.00;;;;;12.65;66.80;101036.16;5120919;27;46216;-68
2023/12/24 11:18:58;;;;;;;;;2.00;2.00;;;;;13.11;66.67;101117.53;5118137;27;45489;-70
2023/12/24 11:21:24;;;;;;;;;10.00;3.00;;;;;13.20;66.88;101114.00;5120453;27;45504;-68
2023/12/24 11:24:08;;;;;;;;;6.67;2.67;;;;;13.27;66.80;101121.00;5121287;27;45369;-68
2023/12/24 11:26:38;;;;;;;;;5.00;2.33;;;;;13.09;66.63;101103.50;5119859;27;45607;-72